Ben Zobrist (2B/LF, CHC)

Avg
0.267
HR
13
wOBA
0.355
nERD
1.40

Most Recent Player News

Chicago Cubs second baseman Ben Zobrist is back in Tuesday's lineup against the New York Mets, but infielder Javier Baez is on the bench.

What It Means:

Zobrist was out of the lineup for a couple of days in order to get some rest, but he'll bat cleanup against Mets starter Noah Syndergaard Tuesday. Tommy La Stella will make the start at third base and hit leadoff in Baez's stead.

Zobrist has been both versatile and dominant in 2016, slashing .277/.386/.458 with a .366 wOBA. He adds to that with a stellar line of 13 home runs, 59 runs and 47 RBI's in 371 plate appearances on the year. We project his pace to dip slightly in the remaining months, posting a .346 wOBA, with 7 more home runs, 34 runs and 29 RBI's in another 266 appearances at the plate.

Source: Rotoworld.com
Posted on Tuesday, July 19th, 2016 at 2:48pm EDT

Ben Zobrist Player Profile

Current Stats
Batting Average0.267
Hits86
SLUG0.441
OBP0.376
wOBA0.355
Statistical RankingsRank
Plate Appearances384#59
Runs59#25
Home Runs13#79
RBI47#75
Stolen Bases4#108
nERD1.40#63

Fantasy RankingsRank
Fantasy Score 3.75 #65
Projected Stats
Batting Average0.270
Hits145
SLUG0.444
OBP0.373
wOBA0.353
Statistical RankingsRank
Plate Appearances637#60
Runs92#28
Home Runs20#84
RBI74#81
Stolen Bases8#98
Batting Average0.270#107
OPS0.817#69

Fantasy RankingsRank
Fantasy Score 4.15 #63
Remaining This Season
Batting Average0.273
Hits59
SLUG0.449
OBP0.369
wOBA0.35
Statistical RankingsRank
Plate Appearances253#68
Runs33#40
Home Runs7#80
RBI27#92
Stolen Bases4#72
Batting Average0.273#53
OPS0.818#35

Fantasy RankingsRank
Fantasy Score 4.54 #50

Projections By Game

Date Opponent PA AB BB 1B 2B 3B HR R RBI SB HBP SO AVG
2016-04-04 L.A. Angels 4.60 3.84 0.65 0.74 0.26 0.02 0.10 0.52 0.36 0.05 0.06 0.39 0.269
2016-04-05 L.A. Angels 4.37 3.80 0.54 0.78 0.27 0.00 0.11 0.50 0.45 0.02 0.01 0.40 0.279
2016-04-07 Arizona 4.65 3.85 0.72 0.82 0.27 0.02 0.10 0.63 0.51 0.04 0.04 0.35 0.288
2016-04-08 Arizona 4.56 3.79 0.67 0.70 0.27 0.02 0.09 0.53 0.49 0.02 0.06 0.36 0.262
2016-04-09 Arizona 4.49 3.78 0.60 0.63 0.30 0.03 0.08 0.48 0.42 0.02 0.05 0.35 0.253
2016-04-10 Arizona 4.82 3.97 0.76 0.66 0.34 0.04 0.09 0.60 0.46 0.02 0.04 0.36 0.260
2016-04-11 Cincinnati 4.16 3.47 0.63 0.72 0.28 0.03 0.10 0.57 0.45 0.03 0.03 0.33 0.298
2016-04-13 Cincinnati 4.42 3.73 0.61 0.81 0.26 0.02 0.11 0.56 0.48 0.02 0.03 0.36 0.291
2016-04-14 Cincinnati 4.36 3.71 0.55 0.66 0.34 0.04 0.08 0.50 0.42 0.02 0.05 0.37 0.274
2016-04-15 Colorado 4.38 3.71 0.58 0.67 0.29 0.04 0.08 0.46 0.41 0.04 0.06 0.35 0.268
2016-04-17 Colorado 4.39 3.60 0.66 0.74 0.29 0.01 0.09 0.58 0.49 0.04 0.07 0.25 0.289
2016-04-18 St. Louis 4.55 3.92 0.55 0.79 0.31 0.06 0.09 0.52 0.38 0.03 0.06 0.39 0.297
2016-04-19 St. Louis 4.14 3.48 0.58 0.63 0.23 0.05 0.05 0.38 0.30 0.02 0.06 0.41 0.253
2016-04-20 St. Louis 4.47 3.78 0.60 0.61 0.28 0.06 0.07 0.38 0.29 0.02 0.05 0.43 0.249
2016-04-21 Cincinnati 4.35 3.57 0.71 0.67 0.24 0.03 0.10 0.59 0.47 0.03 0.03 0.41 0.269
2016-04-22 Cincinnati 4.48 3.80 0.62 0.81 0.22 0.02 0.11 0.55 0.48 0.03 0.02 0.30 0.276
2016-04-23 Cincinnati 4.47 3.71 0.67 0.72 0.27 0.02 0.11 0.52 0.46 0.02 0.04 0.34 0.274
2016-04-26 Milwaukee 4.17 3.44 0.62 0.62 0.25 0.03 0.07 0.47 0.38 0.00 0.07 0.30 0.260
2016-04-28 Milwaukee 4.20 3.45 0.61 0.67 0.22 0.06 0.06 0.50 0.43 0.07 0.08 0.61 0.283
2016-04-29 Atlanta 4.39 3.64 0.66 0.72 0.24 0.02 0.11 0.58 0.54 0.03 0.05 0.30 0.272
Date Opponent PA AB BB 1B 2B 3B HR R RBI SB HBP SO AVG
2016-05-01 Atlanta 4.18 3.43 0.63 0.76 0.30 0.01 0.09 0.60 0.57 0.05 0.05 0.33 0.313
2016-05-02 Pittsburgh 4.25 3.56 0.58 0.57 0.25 0.07 0.05 0.36 0.28 0.04 0.07 0.50 0.246
2016-05-03 Pittsburgh 4.41 3.81 0.49 0.67 0.22 0.07 0.06 0.41 0.36 0.03 0.07 0.47 0.249
2016-05-04 Pittsburgh 4.31 3.49 0.66 0.59 0.22 0.04 0.06 0.40 0.31 0.08 0.08 0.48 0.244
2016-05-05 Washington 4.11 3.50 0.53 0.67 0.25 0.06 0.06 0.45 0.31 0.03 0.05 0.37 0.273
2016-05-06 Washington 4.04 3.51 0.45 0.59 0.28 0.04 0.09 0.47 0.37 0.03 0.06 0.39 0.262
2016-05-07 Washington 4.08 3.46 0.51 0.68 0.20 0.03 0.08 0.37 0.40 0.03 0.07 0.39 0.260
2016-05-08 Washington 4.07 3.46 0.54 0.65 0.26 0.04 0.08 0.44 0.39 0.02 0.05 0.35 0.274
2016-05-10 San Diego 4.20 3.47 0.64 0.61 0.29 0.03 0.09 0.53 0.39 0.01 0.05 0.34 0.268
2016-05-11 San Diego 4.60 3.76 0.72 0.69 0.33 0.06 0.07 0.49 0.37 0.06 0.08 0.36 0.279
2016-05-13 Pittsburgh 4.12 3.44 0.57 0.61 0.21 0.05 0.04 0.34 0.35 0.07 0.06 0.42 0.246
2016-05-14 Pittsburgh 4.13 3.47 0.59 0.65 0.24 0.03 0.08 0.37 0.39 0.03 0.06 0.41 0.263
2016-05-15 Pittsburgh 4.11 3.51 0.51 0.62 0.23 0.05 0.05 0.37 0.33 0.05 0.06 0.37 0.250
2016-05-17 Milwaukee 4.47 3.75 0.58 0.69 0.34 0.02 0.08 0.49 0.47 0.02 0.06 0.27 0.277
2016-05-18 Milwaukee 4.46 3.78 0.59 0.68 0.31 0.04 0.08 0.51 0.40 0.02 0.06 0.35 0.269
2016-05-19 Milwaukee 4.44 3.70 0.63 0.64 0.32 0.04 0.08 0.47 0.43 0.01 0.06 0.35 0.267
2016-05-20 San Francisco 4.35 3.68 0.59 0.77 0.25 0.01 0.12 0.49 0.46 0.02 0.05 0.37 0.285
2016-05-21 San Francisco 4.53 3.80 0.65 0.83 0.25 0.00 0.11 0.53 0.49 0.02 0.05 0.38 0.289
2016-05-22 San Francisco 4.37 3.79 0.49 0.71 0.28 0.02 0.06 0.38 0.37 0.02 0.05 0.42 0.259
2016-05-23 St. Louis 4.54 3.96 0.50 0.75 0.30 0.04 0.13 0.55 0.51 0.05 0.05 0.31 0.285
2016-05-24 St. Louis 4.36 3.72 0.52 0.75 0.27 0.03 0.07 0.41 0.33 0.06 0.07 0.39 0.279
2016-05-25 St. Louis 4.33 3.74 0.51 0.75 0.25 0.03 0.05 0.38 0.31 0.05 0.05 0.34 0.267
2016-05-27 Philadelphia 4.53 3.78 0.67 0.79 0.25 0.02 0.10 0.58 0.53 0.04 0.04 0.25 0.282
2016-05-28 Philadelphia 4.12 3.46 0.58 0.66 0.24 0.02 0.09 0.45 0.47 0.04 0.05 0.31 0.267
2016-05-29 Philadelphia 4.14 3.44 0.59 0.67 0.27 0.03 0.12 0.59 0.53 0.04 0.06 0.37 0.288
2016-05-30 L.A. Dodgers 4.54 3.84 0.62 0.72 0.25 0.03 0.06 0.38 0.33 0.03 0.04 0.45 0.252
2016-05-31 L.A. Dodgers 4.06 3.49 0.49 0.69 0.22 0.03 0.09 0.45 0.41 0.02 0.05 0.36 0.269
Date Opponent PA AB BB 1B 2B 3B HR R RBI SB HBP SO AVG
2016-06-01 L.A. Dodgers 4.15 3.46 0.62 0.67 0.25 0.03 0.08 0.51 0.35 0.01 0.06 0.36 0.272
2016-06-03 Arizona 4.21 3.57 0.57 0.66 0.33 0.02 0.11 0.52 0.44 0.02 0.04 0.32 0.288
2016-06-04 Arizona 4.18 3.51 0.59 0.75 0.25 0.04 0.11 0.60 0.51 0.05 0.03 0.30 0.299
2016-06-05 Arizona 4.47 3.81 0.59 0.68 0.25 0.04 0.08 0.42 0.49 0.02 0.04 0.39 0.252
2016-06-07 Philadelphia 4.41 3.73 0.59 0.71 0.29 0.03 0.08 0.48 0.44 0.03 0.05 0.34 0.274
2016-06-08 Philadelphia 4.38 3.63 0.61 0.66 0.28 0.04 0.12 0.63 0.54 0.03 0.06 0.39 0.275
2016-06-10 Atlanta 4.55 3.78 0.67 0.74 0.32 0.01 0.12 0.55 0.47 0.02 0.04 0.35 0.287
2016-06-11 Atlanta 4.42 3.77 0.57 0.73 0.33 0.01 0.12 0.53 0.52 0.02 0.04 0.31 0.287
2016-06-12 Atlanta 4.44 3.69 0.64 0.72 0.27 0.02 0.11 0.51 0.49 0.02 0.04 0.35 0.277
2016-06-13 Washington 4.28 3.68 0.50 0.65 0.27 0.03 0.11 0.52 0.43 0.02 0.07 0.41 0.263
2016-06-14 Washington 4.27 3.64 0.56 0.70 0.25 0.04 0.09 0.40 0.42 0.03 0.05 0.36 0.269
2016-06-15 Washington 4.67 4.09 0.51 0.74 0.27 0.04 0.13 0.55 0.48 0.03 0.05 0.45 0.265
2016-06-17 Pittsburgh 4.34 3.60 0.65 0.70 0.30 0.04 0.10 0.54 0.37 0.06 0.06 0.37 0.292
2016-06-18 Pittsburgh 4.11 3.54 0.53 0.57 0.24 0.03 0.10 0.45 0.43 0.06 0.03 0.39 0.244
2016-06-19 Pittsburgh 4.15 3.50 0.58 0.62 0.26 0.02 0.10 0.48 0.44 0.02 0.04 0.34 0.263
2016-06-20 St. Louis 4.58 3.87 0.64 0.63 0.27 0.02 0.08 0.40 0.34 0.03 0.04 0.52 0.241
2016-06-21 St. Louis 4.19 3.63 0.47 0.70 0.27 0.04 0.07 0.53 0.42 0.06 0.04 0.32 0.274
2016-06-22 St. Louis 4.13 3.58 0.48 0.70 0.27 0.04 0.06 0.45 0.26 0.06 0.05 0.38 0.276
2016-06-23 Miami 4.83 4.14 0.60 0.79 0.33 0.01 0.12 0.61 0.58 0.03 0.05 0.47 0.275
2016-06-24 Miami 4.62 3.64 0.86 0.69 0.34 0.03 0.11 0.65 0.50 0.02 0.06 0.39 0.293
2016-06-26 Miami 4.71 3.88 0.71 0.61 0.40 0.03 0.11 0.56 0.49 0.02 0.06 0.45 0.272
2016-06-27 Cincinnati 4.91 4.06 0.74 0.80 0.35 0.03 0.14 0.72 0.59 0.03 0.04 0.36 0.298
2016-06-28 Cincinnati 4.95 4.11 0.75 0.85 0.30 0.04 0.12 0.76 0.55 0.08 0.03 0.42 0.292
2016-06-29 Cincinnati 4.92 4.08 0.78 0.81 0.27 0.05 0.16 0.81 0.64 0.11 0.02 0.45 0.292
2016-06-30 N.Y. Mets 4.73 4.03 0.60 0.72 0.29 0.04 0.07 0.38 0.35 0.03 0.07 0.48 0.257
Date Opponent PA AB BB 1B 2B 3B HR R RBI SB HBP SO AVG
2016-07-01 N.Y. Mets 4.72 4.04 0.58 0.67 0.32 0.05 0.09 0.46 0.35 0.03 0.07 0.41 0.258
2016-07-02 N.Y. Mets 4.78 4.18 0.50 0.80 0.25 0.05 0.12 0.51 0.49 0.08 0.05 0.39 0.271
2016-07-03 N.Y. Mets 4.64 4.00 0.56 0.60 0.31 0.05 0.08 0.37 0.28 0.02 0.04 0.51 0.245
2016-07-05 Cincinnati 4.68 3.87 0.74 0.81 0.26 0.04 0.12 0.74 0.53 0.07 0.02 0.42 0.289
2016-07-06 Cincinnati 4.67 3.94 0.63 0.74 0.28 0.01 0.13 0.57 0.52 0.03 0.03 0.37 0.270
2016-07-07 Atlanta 4.33 3.63 0.58 0.64 0.30 0.03 0.10 0.46 0.50 0.06 0.05 0.41 0.272
2016-07-08 Pittsburgh 4.90 4.06 0.72 0.79 0.32 0.03 0.12 0.63 0.49 0.04 0.07 0.42 0.290
2016-07-09 Pittsburgh 4.53 3.80 0.60 0.71 0.29 0.00 0.10 0.53 0.42 0.05 0.04 0.37 0.265
2016-07-10 Pittsburgh 4.87 4.08 0.72 0.69 0.24 0.02 0.12 0.52 0.51 0.03 0.03 0.45 0.242
2016-07-15 Texas 4.70 3.86 0.73 0.78 0.18 0.01 0.09 0.62 0.44 0.08 0.04 0.44 0.254
2016-07-16 Texas 4.34 3.59 0.68 0.68 0.24 0.01 0.08 0.55 0.44 0.06 0.03 0.37 0.260
2016-07-19 N.Y. Mets 4.15 3.57 0.49 0.52 0.27 0.06 0.06 0.44 0.26 0.09 0.06 0.56 0.243
2016-07-20 N.Y. Mets 4.56 4.10 0.39 0.78 0.20 0.05 0.08 0.56 0.39 0.08 0.04 0.49 0.260
2016-07-22 Milwaukee 4.67 3.74 0.78 0.78 0.22 0.01 0.08 0.61 0.41 0.07 0.07 0.39 0.277
2016-07-23 Milwaukee 4.51 3.71 0.69 0.79 0.15 0.04 0.07 0.52 0.38 0.04 0.06 0.43 0.267
2016-07-24 Milwaukee 4.88 3.90 0.81 0.90 0.18 0.02 0.10 0.63 0.47 0.04 0.09 0.46 0.292
2016-07-25 Chi. White Sox 4.92 4.11 0.70 0.74 0.39 0.04 0.12 0.75 0.60 0.11 0.04 0.52 0.292
2016-07-26 Chi. White Sox 4.95 4.01 0.82 0.84 0.39 0.04 0.15 0.86 0.76 0.07 0.04 0.45 0.336
2016-07-27 Chi. White Sox 4.68 3.87 0.72 0.76 0.30 0.04 0.08 0.62 0.50 0.05 0.05 0.41 0.285
2016-07-30 Seattle 4.57 4.08 0.41 0.63 0.31 0.03 0.15 0.57 0.55 0.02 0.02 0.50 0.262

Statlines By Game

Date Opponent PA AB BB 1B 2B 3B HR R RBI SB HBP SO AVG
2016-04-04 L.A. Angels 5 5 0 2 0 0 0 1 0 0 0 2 0.400
2016-04-05 L.A. Angels 4 4 0 2 0 0 0 0 0 0 0 0 0.500
2016-04-07 Arizona 6 3 3 0 1 0 0 3 1 0 0 0 0.333
2016-04-08 Arizona 4 4 0 0 0 0 0 0 1 0 0 1 0.000
2016-04-09 Arizona 5 4 1 2 1 0 0 1 1 0 0 0 0.750
2016-04-10 Arizona 5 4 1 1 0 0 0 0 0 0 0 2 0.250
2016-04-11 Cincinnati 4 3 1 0 0 0 0 1 0 0 0 0 0.000
2016-04-13 Cincinnati 5 4 1 0 0 0 0 1 0 1 0 1 0.000
2016-04-14 Cincinnati 5 3 1 0 0 0 0 0 1 0 0 1 0.000
2016-04-15 Colorado 4 4 0 0 0 0 0 0 0 0 0 0 0.000
2016-04-17 Colorado 4 4 0 0 0 0 0 0 0 0 0 0 0.000
2016-04-18 St. Louis 4 4 0 0 1 0 0 1 0 0 0 1 0.250
2016-04-19 St. Louis 4 3 1 1 0 0 0 1 0 0 0 0 0.333
2016-04-20 St. Louis 4 3 1 0 0 0 0 0 0 0 0 1 0.000
2016-04-21 Cincinnati 6 5 1 1 1 0 1 1 3 0 0 0 0.600
2016-04-22 Cincinnati 4 2 2 1 0 0 0 0 0 0 0 0 0.500
2016-04-23 Cincinnati 5 4 1 1 0 0 0 0 1 0 0 0 0.250
2016-04-26 Milwaukee 4 2 2 0 0 0 0 1 0 0 0 0 0.000
2016-04-28 Milwaukee 5 5 0 2 0 0 0 0 2 0 0 1 0.400
2016-04-29 Atlanta 4 3 1 1 0 0 0 1 0 0 0 0 0.333
Date Opponent PA AB BB 1B 2B 3B HR R RBI SB HBP SO AVG
2016-05-01 Atlanta 4 3 1 0 0 0 0 1 0 0 0 1 0.000
2016-05-02 Pittsburgh 5 3 0 1 0 0 0 1 2 0 1 0 0.333
2016-05-03 Pittsburgh 5 4 0 0 1 0 0 1 1 0 0 2 0.250
2016-05-04 Pittsburgh 5 5 0 0 0 0 1 1 3 0 0 0 0.200
2016-05-05 Washington 4 4 0 1 0 0 1 1 4 0 0 0 0.500
2016-05-06 Washington 4 2 2 0 0 0 2 3 4 0 0 0 1.000
2016-05-07 Washington 5 3 1 1 0 0 0 0 1 0 0 0 0.333
2016-05-08 Washington 6 4 2 1 0 0 0 1 0 0 0 0 0.250
2016-05-10 San Diego 4 4 0 4 0 0 0 3 2 0 0 0 1.000
2016-05-11 San Diego 5 3 2 2 0 0 0 1 1 0 0 0 0.667
2016-05-11 San Diego 2 2 0 0 0 0 0 0 0 0 0 1 0.000
2016-05-13 Pittsburgh 4 3 1 1 0 0 0 2 0 0 0 1 0.333
2016-05-14 Pittsburgh 5 3 2 2 0 0 0 1 0 0 0 0 0.667
2016-05-15 Pittsburgh 4 4 0 0 1 0 0 0 0 0 0 1 0.250
2016-05-17 Milwaukee 3 3 0 0 1 0 0 0 0 0 0 0 0.333
2016-05-18 Milwaukee 6 5 1 3 0 0 0 1 0 1 0 0 0.600
2016-05-19 Milwaukee 4 3 1 0 1 0 0 0 0 0 0 1 0.333
2016-05-20 San Francisco 4 4 0 0 0 0 1 1 1 0 0 0 0.250
2016-05-21 San Francisco 5 5 0 2 0 0 0 0 0 0 0 0 0.400
2016-05-22 San Francisco 4 4 0 1 0 0 0 0 0 0 0 0 0.250
2016-05-23 St. Louis 5 4 1 3 0 0 0 1 0 0 0 0 0.750
2016-05-24 St. Louis 4 3 1 0 1 0 0 2 0 0 0 0 0.333
2016-05-25 St. Louis 5 5 0 3 0 0 0 1 2 0 0 1 0.600
2016-05-27 Philadelphia 4 4 0 1 1 0 0 1 0 0 0 1 0.500
2016-05-28 Philadelphia 4 4 0 1 1 0 0 0 1 0 0 1 0.500
2016-05-29 Philadelphia 4 4 0 0 0 0 1 1 3 0 0 2 0.250
2016-05-30 L.A. Dodgers 4 3 1 1 0 0 0 1 0 0 0 1 0.333
2016-05-31 L.A. Dodgers 3 3 0 0 0 0 0 0 0 0 0 3 0.000
Date Opponent PA AB BB 1B 2B 3B HR R RBI SB HBP SO AVG
2016-06-01 L.A. Dodgers 3 3 0 0 0 0 0 0 0 0 0 1 0.000
2016-06-03 Arizona 4 2 2 0 0 0 0 1 0 0 0 0 0.000
2016-06-04 Arizona 4 2 2 0 0 0 0 1 0 0 0 0 0.000
2016-06-05 Arizona 4 3 1 0 0 0 0 0 0 0 0 1 0.000
2016-06-07 Philadelphia 4 3 1 0 0 0 0 1 0 0 0 0 0.000
2016-06-08 Philadelphia 4 4 0 1 0 0 1 2 1 0 0 0 0.500
2016-06-10 Atlanta 3 3 0 1 0 0 0 0 0 0 0 1 0.333
2016-06-11 Atlanta 5 5 0 1 0 0 0 1 0 0 0 2 0.200
2016-06-12 Atlanta 6 5 1 1 1 0 0 1 2 0 0 2 0.400
2016-06-13 Washington 3 3 0 0 0 0 0 0 0 0 0 0 0.000
2016-06-14 Washington 4 3 1 0 1 0 0 1 0 1 0 1 0.333
2016-06-15 Washington 6 5 1 0 0 0 1 1 1 0 0 1 0.200
2016-06-17 Pittsburgh 5 5 0 1 0 0 0 1 1 0 0 1 0.200
2016-06-18 Pittsburgh 4 2 2 1 0 0 0 0 0 0 0 0 0.500
2016-06-19 Pittsburgh 4 4 0 0 0 0 0 0 1 0 0 0 0.000
2016-06-20 St. Louis 5 5 0 3 0 0 0 1 0 0 0 1 0.600
2016-06-21 St. Louis 4 4 0 0 0 0 0 0 0 0 0 1 0.000
2016-06-22 St. Louis 3 3 0 0 0 0 0 0 0 0 0 0 0.000
2016-06-23 Miami 5 4 1 0 0 0 0 0 0 0 0 1 0.000
2016-06-24 Miami 4 3 0 1 0 0 0 1 0 0 1 1 0.333
2016-06-25 Miami 1 0 1 0 0 0 0 0 0 0 0 0 0.000
2016-06-26 Miami 4 3 1 0 0 0 0 0 0 0 0 1 0.000
2016-06-27 Cincinnati 6 6 0 0 1 0 0 0 0 0 0 0 0.167
2016-06-28 Cincinnati 7 6 1 0 1 0 1 2 1 0 0 2 0.333
2016-06-29 Cincinnati 5 4 1 2 0 0 0 2 0 0 0 0 0.500
2016-06-30 N.Y. Mets 5 5 0 1 1 0 0 1 0 0 0 1 0.400
Date Opponent PA AB BB 1B 2B 3B HR R RBI SB HBP SO AVG
2016-07-01 N.Y. Mets 2 2 0 0 0 0 0 0 0 0 0 1 0.000
2016-07-02 N.Y. Mets 5 4 1 0 0 0 1 1 1 0 0 0 0.250
2016-07-03 N.Y. Mets 2 2 0 0 0 0 0 0 0 0 0 0 0.000
2016-07-05 Cincinnati 5 5 0 0 0 0 0 0 0 0 0 0 0.000
2016-07-06 Cincinnati 4 3 1 0 0 0 1 1 1 0 0 0 0.333
2016-07-07 Atlanta 5 5 0 0 1 0 0 1 1 0 0 1 0.200
2016-07-08 Pittsburgh 5 4 1 0 0 0 0 0 0 1 0 1 0.000
2016-07-09 Pittsburgh 5 5 0 0 0 0 1 1 2 0 0 0 0.200
2016-07-10 Pittsburgh 5 5 0 1 0 0 0 1 0 0 0 1 0.200
2016-07-15 Texas 5 3 2 0 0 0 0 0 0 0 0 1 0.000
2016-07-16 Texas 4 3 1 0 0 0 0 0 0 0 0 1 0.000
2016-07-19 N.Y. Mets 4 4 0 0 0 0 0 0 0 0 0 1 0.000
2016-07-20 N.Y. Mets 5 5 0 0 0 0 0 0 0 0 0 0 0.000

DFS Performance

  FanDuel DraftKings FantasyFeud DraftDay FantasyAces FantasyScore Yahoo
Date Opponent FP Value FP Value FP Value FP Value FP Value FP Value FP Value
2016-04-04 L.A. Angels 9.2 3.41 8 2.05 3 0.46 12 1.48 2.25 0.48 3 0.61 6 0.4
2016-04-05 L.A. Angels 6 2.22 6 1.54 2.5 0.36 8 0.95 2 0.43 2 0.41 4 0.29
2016-04-07 Arizona 28.1 10.41 19 4.42 11.5 1.61 43 5.21 10 2.13 9 1.84 18 1.13
2016-04-08 Arizona 3.5 1.3 2 0.48 1.5 0.21 1 0.12 0.75 0.16 1 0.2 2 0.11
2016-04-09 Arizona 21.7 7.48 17 4.25 9 1.17 34 3.8 7.5 1.6 7 1.43 14 0.82
2016-04-10 Arizona 6 2.14 5 1.16 1.25 0.17 7 0.81 1 0.21 2 0.41 4 0.22
2016-04-11 Cincinnati 6.2 2.07 4 0.93 2.5 0.31 7 0.81 2.25 0.47 2 0.41 4 0.22
2016-04-13 Cincinnati 12.2 4.07 9 2.14 4 0.55 11 1.35 3.75 0.78 4 0.82 8 0.5
2016-04-14 Cincinnati 6.5 2.17 4 1.03 2.5 0.34 7 0.86 1.75 0.36 2 0.41 4 0.24
2016-04-15 Colorado 0 0 0 0 0 0 -4 -0.49 0 0 0 0 0 0
2016-04-17 Colorado 0 0 0 0 0 0 -4 -0.52 0 0 0 0 0 0
2016-04-18 St. Louis 9.2 3.07 7 1.84 3 0.45 12 1.56 2.75 0.59 3 0.61 6 0.35
2016-04-19 St. Louis 9.2 3.17 7 1.84 3.75 0.61 13 1.74 3.25 0.7 3 0.61 6 0.35
2016-04-20 St. Louis 3 1.03 2 0.47 0.5 0.08 2 0.27 0.5 0.11 1 0.2 2 0.12
2016-04-21 Cincinnati 37.7 13 28 6.67 15.75 2.3 58 7.73 13 2.83 12 2.45 24 1.6
2016-04-22 Cincinnati 9 3.21 7 1.59 2.25 0.32 14 1.9 3 0.65 2 0.41 6 0.4
2016-04-23 Cincinnati 9.5 3.06 7 1.67 4.25 0.55 12 1.51 3.25 0.71 3 0.61 6 0.4
2016-04-26 Milwaukee 9.2 3.07 6 1.67 3.5 0.5 13 1.65 3.25 0.7 3 0.61 6 0.33
2016-04-28 Milwaukee 13 4.19 10 2.63 6 0.87 17 2.15 4 0.86 4 0.82 8 0.42
2016-04-29 Atlanta 9.2 2.97 7 1.89 3.75 0.49 13 1.65 3.25 0.7 3 0.61 6 0.33
  FanDuel DraftKings FantasyFeud DraftDay FantasyAces FantasyScore Yahoo
Date Opponent FP Value FP Value FP Value FP Value FP Value FP Value FP Value
2016-05-01 Atlanta 6.2 1.88 4 1.18 2 0.27 7 0.88 1.75 0.38 2 0.41 4 0.22
2016-05-02 Pittsburgh 16.2 4.91 11 2.68 7.75 1.17 23 2.88 5.25 1.13 5 1.02 10 0.63
2016-05-03 Pittsburgh 12.7 3.85 9 2.31 4.5 0.62 17 2.15 3.5 0.75 4 0.85 8 0.44
2016-05-04 Pittsburgh 25.7 7.56 18 4.74 11.5 1.55 36 4.42 9 1.86 8 1.7 16 0.89
2016-05-05 Washington 32.2 9.2 23 6.05 14.75 1.99 48 5.89 11.25 2.32 10 2.13 20 1.18
2016-05-06 Washington 53.6 15.31 38 9.5 22.5 3.25 85 9.71 18.75 3.87 17 3.62 34 2.27
2016-05-07 Washington 9.5 2.57 7 1.67 4.25 0.54 13 1.35 3.25 0.67 3 0.64 6 0.33
2016-05-08 Washington 12.2 3.3 9 2 4.75 0.54 17 1.52 4.25 0.88 4 0.85 8 0.44
2016-05-10 San Diego 28.6 6.98 22 5 13.5 1.41 45 4.17 10.25 2.03 9 1.91 18 0.9
2016-05-11 San Diego 18.7 4.56 14 2.8 7 0.76 29 2.69 6.5 1.29 5 1.06 12 0.6
2016-05-11 San Diego 0 0 0 0 -0.5 -0.05 -2 -0.19 -0.5 -0.1 0 0 0 0
2016-05-13 Pittsburgh 12.4 3.02 9 1.8 4.75 0.5 18 1.77 4 0.78 4 0.85 8 0.36
2016-05-14 Pittsburgh 15.2 3.71 12 2.79 6 0.57 24 2.36 5.25 1.03 5 1.06 10 0.48
2016-05-15 Pittsburgh 6 1.46 5 1.16 1.5 0.16 7 0.69 1.5 0.29 2 0.43 4 0.19
2016-05-17 Milwaukee 6 1.43 5 0.96 2 0.19 8 0.75 2 0.38 2 0.42 4 0.18
2016-05-18 Milwaukee 21.2 5.05 18 3.75 8.25 0.87 28 2.64 7.25 1.39 7 1.46 14 0.64
2016-05-19 Milwaukee 9 2.2 7 1.56 2.5 0.28 13 1.24 2.5 0.48 3 0.63 6 0.27
2016-05-20 San Francisco 18.7 4.45 14 3.11 7.5 0.8 27 3.33 6.5 1.25 6 1.25 12 0.48
2016-05-21 San Francisco 6 1.43 6 1.62 2.5 0.27 7 0.87 2 0.38 2 0.42 4 0.17
2016-05-22 San Francisco 3 0.7 3 0.81 1.25 0.16 2 0.25 1 0.19 1 0.21 2 0.1
2016-05-23 St. Louis 15.2 3.62 13 2.77 6.25 0.74 24 2.64 5.25 1.01 5 1.04 10 0.43
2016-05-24 St. Louis 15.4 3.85 11 2.56 6 0.67 23 2.57 5.5 1.08 5 1.04 10 0.43
2016-05-25 St. Louis 19.2 4.8 15 3.49 8.75 0.93 28 3.11 6.25 1.2 6 1.25 12 0.55
2016-05-27 Philadelphia 12.2 2.84 10 2.22 4.25 0.44 18 1.82 3.75 0.72 4 0.83 8 0.35
2016-05-28 Philadelphia 12.5 2.91 10 2.44 4.75 0.49 18 1.82 3.75 0.72 4 0.83 8 0.35
2016-05-29 Philadelphia 25.7 5.98 18 3.75 10.5 1.2 37 3.74 8 1.54 8 1.67 16 0.73
2016-05-30 L.A. Dodgers 9.2 2.14 7 1.46 3.25 0.33 13 1.32 2.75 0.53 3 0.63 6 0.24
2016-05-31 L.A. Dodgers 0 0 0 0 -1.5 -0.16 -3 -0.3 -1.5 -0.29 0 0 0 0
  FanDuel DraftKings FantasyFeud DraftDay FantasyAces FantasyScore Yahoo
Date Opponent FP Value FP Value FP Value FP Value FP Value FP Value FP Value
2016-06-01 L.A. Dodgers 0 0 0 0 -0.5 -0.05 -3 -0.3 -0.5 -0.1 0 0 0 0
2016-06-03 Arizona 9.2 2.56 6 1.18 3.5 0.36 13 1.34 3.25 0.63 3 0.63 6 0.25
2016-06-04 Arizona 9.2 2.71 6 1.22 3.5 0.35 13 1.34 3.25 0.63 3 0.63 6 0.25
2016-06-05 Arizona 3 0.88 2 0.38 0.5 0.05 2 0.21 0.5 0.1 1 0.21 2 0.08
2016-06-07 Philadelphia 6.2 1.88 4 0.93 2.5 0.29 7 0.71 2.25 0.45 2 0.42 4 0.17
2016-06-08 Philadelphia 24.9 7.78 19 4.42 10.25 1.25 38 3.84 8.75 1.73 8 1.63 16 0.76
2016-06-10 Atlanta 3 0.88 3 0.71 0.75 0.08 3 0.35 0.5 0.1 1 0.2 2 0.1
2016-06-11 Atlanta 6.2 1.82 5 1.19 1.75 0.2 6 0.69 1.25 0.25 2 0.41 4 0.2
2016-06-12 Atlanta 22.2 6.53 16 4.85 8.75 1.04 32 3.72 6.75 1.34 7 1.43 14 0.7
2016-06-13 Washington 0 0 0 0 0 0 -3 -0.34 0 0 0 0 0 0
2016-06-14 Washington 18.2 5.06 14 4.24 6 0.72 23 2.54 5.75 1.14 6 1.22 12 0.67
2016-06-15 Washington 21.7 6.78 16 4.85 8 1.07 31 3.48 7 1.39 7 1.43 14 0.78
2016-06-17 Pittsburgh 9.7 2.62 7 1.4 4.25 0.49 11 1.16 3 0.59 3 0.61 6 0.33
2016-06-18 Pittsburgh 9 2.65 7 1.4 3.25 0.37 14 1.47 3 0.59 3 0.61 6 0.33
2016-06-19 Pittsburgh 3.5 1 2 0.44 2 0.25 1 0.11 1.25 0.25 1 0.2 2 0.11
2016-06-20 St. Louis 12.2 3.7 11 2.34 4.75 0.53 18 1.89 3.75 0.74 4 0.83 8 0.42
2016-06-21 St. Louis 0 0 0 0 -0.5 -0.06 -4 -0.43 -0.5 -0.1 0 0 0 0
2016-06-22 St. Louis 0 0 0 0 0 0 -3 -0.32 0 0 0 0 0 0
2016-06-23 Miami 3 0.94 2 0.53 0.5 0.06 1 0.12 0.5 0.1 1 0.21 2 0.11
2016-06-24 Miami 9.2 2.88 7 1.49 3.25 0.42 13 1.59 2.25 0.45 3 0.63 6 0.33
2016-06-25 Miami 3 0.91 2 0.67 1 0.12 5 0.61 1 0.2 1 0.21 2 0.12
2016-06-26 Miami 3 1.25 2 0.45 0.5 0.07 2 0.25 0.5 0.1 1 0.21 2 0.14
2016-06-27 Cincinnati 6 1.67 5 1.06 2 0.27 5 0.53 2 0.4 2 0.42 4 0.27
2016-06-28 Cincinnati 30.9 8.13 23 5.35 11 1.53 46 4.95 9.75 1.93 10 2.08 20 1.43
2016-06-29 Cincinnati 15.4 3.58 12 2.93 6.5 0.93 23 2.49 5.5 1.09 5 1.04 10 0.77
2016-06-30 N.Y. Mets 12.2 3.21 10 2.78 4.25 0.63 17 2.13 3.75 0.74 4 0.83 8 0.67
  FanDuel DraftKings FantasyFeud DraftDay FantasyAces FantasyScore Yahoo
Date Opponent FP Value FP Value FP Value FP Value FP Value FP Value FP Value
2016-07-01 N.Y. Mets 0 0 0 0 -0.5 -0.07 -2 -0.25 -0.5 -0.1 0 0 0 0
2016-07-02 N.Y. Mets 21.7 6.38 16 4.85 8.5 1.16 32 4 7.5 1.49 7 1.46 14 1.17
2016-07-03 N.Y. Mets 0 0 0 0 0 0 -2 -0.25 0 0 0 0 0 0
2016-07-05 Cincinnati 0 0 0 0 0 0 -5 -0.56 0 0 0 0 0 0
2016-07-06 Cincinnati 21.7 6.2 16 3.48 8.5 1.12 33 3.67 7.5 1.5 7 1.49 14 1.08
2016-07-07 Atlanta 12.7 3.53 9 1.96 5 0.65 16 1.79 4 0.8 4 0.85 8 0.62
2016-07-08 Pittsburgh 9 2.25 7 1.67 2.5 0.31 6 0.75 2.5 0.5 3 0.64 6 0.46
2016-07-09 Pittsburgh 22.2 6 16 3.27 9.5 1.2 31 3.88 7.75 1.55 7 1.49 14 1
2016-07-10 Pittsburgh 6.2 1.88 5 1 2.25 0.27 6 0.75 1.75 0.35 2 0.43 4 0.24
2016-07-15 Texas 6 1.94 4 1.03 1.5 0.19 7 0.78 1.5 0.3 2 0.43 4 0.29
2016-07-16 Texas 3 0.81 2 0.53 0.5 0.07 2 0.22 0.5 0.1 1 0.21 2 0.13
2016-07-19 N.Y. Mets 0 0 0 0 -0.5 -0.07 -4 -0.45 -0.5 -0.1 0 0 0 0
2016-07-20 N.Y. Mets 0 0 0 0 0 0 -5 -0.56 0 0 0 0 0 0

Player History

Year Age Team G PA H HR RBI SB BA
2016 35 Chi. Cubs 88 384 86 13 47 4 0.267
2015 34 Multiple 126 535 129 13 56 3 0.276
2014 33 Tampa Bay 146 654 155 10 52 10 0.272
2013 32 Tampa Bay 157 698 168 12 71 11 0.275
2012 31 Tampa Bay 157 668 151 20 74 14 0.270
2011 30 Tampa Bay 156 674 158 20 91 19 0.269
2010 29 Tampa Bay 151 655 129 10 75 24 0.238
2009 28 Tampa Bay 152 599 149 27 91 17 0.297
2008 27 Tampa Bay 62 227 50 12 30 3 0.253
2007 26 Tampa Bay 31 105 15 1 9 2 0.155
2006 25 Tampa Bay 52 198 41 2 18 2 0.224
Similar Players

Similar Players

Sorry! We don't enough data on this player to make significant comparisons. This is likely due to the fact that this player is new to the league, or is an unknown commodity in terms of talent.